Airport ID:KEDC
Update Time (UTC):09 DEC 19 03:16
Wind Speed (Knots):9
Wind Direction (Magnetic):180
Temperature (°C):18
Dew Point (°C):13
Humidity (%):73
Altimeter (inHg):29.89
Density Altitude (Feet):
Visibility (Miles):10
Clouds (Hundreds of feet):CLR
Present Weather:NO PRECIPITATION
METAR:METAR KEDC 090315Z AUTO 19009KT 10SM CLR 18/13 A2989 RMK AO2

The data displayed is for advisory purposes only and is not to be used for flight planning or operations.

This page is not automatically refreshed. Reload the page to see current data.